Time;durP1;ratioP1;P1;durP2;ratioP2;P2;SDS_P1;SDS_P2;PMS_P1;PMS_P2;Temp;Humidity;BMP_temperature;BMP_pressure;BME280_temperature;BME280_humidity;BME280_pressure;Samples;Min_cycle;Max_cycle;Signal;HPM_P1;HPM_P2
2023/03/31 15:09:01;;;;;;;7.72;1.67;;;;;;;;;;519258;28;716;-76
2023/03/31 15:16:16;;;;;;;5.25;1.50;;;;;;;;;;518315;28;1956;-76
2023/03/31 15:16:34;;;;;;;6.07;1.80;;;;;;;;;;516845;28;962;-76
2023/03/31 15:16:49;;;;;;;5.32;1.60;;;;;;;;;;517363;28;1379;-76
2023/03/31 15:17:04;;;;;;;5.97;1.80;;;;;;;;;;517856;28;871;-77
2023/03/31 15:17:22;;;;;;;5.90;1.80;;;;;;;;;;515722;28;1345;-77
2023/03/31 15:17:40;;;;;;;6.28;1.80;;;;;;;;;;515668;28;1164;-77
2023/03/31 15:17:56;;;;;;;6.72;1.80;;;;;;;;;;515330;28;1386;-77
2023/03/31 15:18:15;;;;;;;6.60;1.85;;;;;;;;;;513671;28;1127;-77
2023/03/31 15:18:30;;;;;;;6.03;1.83;;;;;;;;;;511770;29;1404;-77
2023/03/31 15:18:46;;;;;;;6.23;1.70;;;;;;;;;;513711;28;1341;-76
2023/03/31 15:19:06;;;;;;;5.65;1.55;;;;;;;;;;513407;28;1368;-77
2023/03/31 15:19:23;;;;;;;6.70;1.70;;;;;;;;;;511571;29;1265;-77
2023/03/31 15:19:38;;;;;;;7.05;1.63;;;;;;;;;;512524;28;1496;-76
2023/03/31 15:19:55;;;;;;;6.27;1.60;;;;;;;;;;511649;29;1447;-76
2023/03/31 15:20:30;;;;;;;6.43;1.80;;;;;;;;;;510872;29;1560;-76
2023/03/31 15:20:45;;;;;;;6.22;1.70;;;;;;;;;;511053;28;1057;-77
2023/03/31 15:21:01;;;;;;;7.07;1.90;;;;;;;;;;512066;28;1224;-76
2023/03/31 15:21:19;;;;;;;7.97;2.10;;;;;;;;;;512374;28;1429;-76
2023/03/31 15:21:36;;;;;;;6.72;1.88;;;;;;;;;;513133;28;1342;-75
2023/03/31 15:21:56;;;;;;;6.72;1.83;;;;;;;;;;512355;28;1293;-75
2023/03/31 15:22:25;;;;;;;5.55;1.70;;;;;;;;;;513375;28;1312;-77
2023/03/31 15:22:42;;;;;;;5.68;1.50;;;;;;;;;;514878;28;1159;-76
2023/03/31 15:22:58;;;;;;;5.25;1.65;;;;;;;;;;513559;28;1135;-75
2023/03/31 15:23:26;;;;;;;5.68;1.70;;;;;;;;;;514393;28;1447;-76
2023/03/31 15:23:45;;;;;;;7.30;1.65;;;;;;;;;;515581;28;966;-76
2023/03/31 15:24:05;;;;;;;6.40;1.70;;;;;;;;;;514135;28;1432;-76
2023/03/31 15:24:20;;;;;;;6.80;1.60;;;;;;;;;;513997;28;1268;-76
2023/03/31 15:24:35;;;;;;;7.00;1.70;;;;;;;;;;510562;29;1198;-76
2023/03/31 15:24:51;;;;;;;6.63;1.70;;;;;;;;;;513079;28;1211;-76
2023/03/31 15:25:11;;;;;;;8.90;1.73;;;;;;;;;;514046;28;1384;-76
2023/03/31 15:25:33;;;;;;;7.28;1.63;;;;;;;;;;515032;28;965;-76
2023/03/31 15:25:48;;;;;;;6.30;1.75;;;;;;;;;;515181;28;1332;-75
2023/03/31 15:26:09;;;;;;;7.03;1.77;;;;;;;;;;516965;28;1351;-74
2023/03/31 15:26:33;;;;;;;6.53;1.58;;;;;;;;;;514353;28;1140;-75
2023/03/31 15:27:08;;;;;;;7.30;1.70;;;;;;;;;;512132;28;1364;-76
2023/03/31 15:27:23;;;;;;;6.47;1.70;;;;;;;;;;513661;28;1233;-76
2023/03/31 15:27:44;;;;;;;6.20;1.58;;;;;;;;;;515186;28;1270;-75
2023/03/31 15:28:05;;;;;;;6.43;1.58;;;;;;;;;;516128;28;1387;-76
2023/03/31 15:28:21;;;;;;;6.93;1.80;;;;;;;;;;517054;28;1051;-75
2023/03/31 15:28:42;;;;;;;6.55;1.80;;;;;;;;;;515635;28;1213;-75
2023/03/31 15:29:02;;;;;;;6.97;1.77;;;;;;;;;;514047;28;1127;-77
2023/03/31 15:29:25;;;;;;;6.53;1.52;;;;;;;;;;514554;28;1096;-76
2023/03/31 15:29:43;;;;;;;5.43;1.50;;;;;;;;;;514626;28;1312;-76
2023/03/31 15:30:00;;;;;;;6.47;1.60;;;;;;;;;;514529;28;1088;-75
2023/03/31 15:30:23;;;;;;;7.07;1.80;;;;;;;;;;514257;28;1553;-75
2023/03/31 15:30:38;;;;;;;5.80;1.50;;;;;;;;;;514795;28;904;-75
2023/03/31 15:30:54;;;;;;;6.10;1.60;;;;;;;;;;513125;28;1189;-75
2023/03/31 15:31:10;;;;;;;6.03;1.67;;;;;;;;;;510420;28;1264;-76
2023/03/31 15:31:25;;;;;;;6.13;1.73;;;;;;;;;;511153;29;1105;-76
2023/03/31 15:31:41;;;;;;;8.00;1.95;;;;;;;;;;511255;28;1411;-76
2023/03/31 15:31:57;;;;;;;7.67;1.83;;;;;;;;;;510870;28;1232;-75
2023/03/31 15:32:17;;;;;;;6.30;1.70;;;;;;;;;;510776;29;1605;-75
2023/03/31 15:32:38;;;;;;;6.60;1.67;;;;;;;;;;509865;28;1022;-76
2023/03/31 15:32:53;;;;;;;6.95;1.63;;;;;;;;;;512801;28;1297;-75
2023/03/31 15:33:19;;;;;;;6.50;1.60;;;;;;;;;;514727;28;1083;-74
2023/03/31 15:33:45;;;;;;;;;;;;;;;;;;;;;
2023/03/31 15:34:24;;;;;;;6.25;1.70;;;;;;;;;;513685;28;979;-76
2023/03/31 15:34:43;;;;;;;6.00;1.60;;;;;;;;;;514417;28;1183;-75
2023/03/31 15:34:59;;;;;;;5.90;1.55;;;;;;;;;;516045;28;1446;-74
2023/03/31 15:35:20;;;;;;;5.72;1.58;;;;;;;;;;514912;28;1402;-75
2023/03/31 15:35:36;;;;;;;5.43;1.60;;;;;;;;;;515676;28;1908;-74
2023/03/31 15:35:51;;;;;;;6.10;1.60;;;;;;;;;;513697;28;1252;-76
2023/03/31 15:36:07;;;;;;;7.47;1.60;;;;;;;;;;513658;28;1064;-75
2023/03/31 15:36:22;;;;;;;8.18;1.77;;;;;;;;;;513634;28;1250;-75
2023/03/31 15:36:37;;;;;;;7.43;1.75;;;;;;;;;;513471;28;1165;-76
2023/03/31 15:36:55;;;;;;;6.87;1.67;;;;;;;;;;512574;28;1490;-77
2023/03/31 15:37:10;;;;;;;6.32;1.63;;;;;;;;;;512850;28;1321;-75
2023/03/31 15:37:44;;;;;;;6.30;1.60;;;;;;;;;;511457;28;1474;-76
2023/03/31 15:38:01;;;;;;;6.03;1.60;;;;;;;;;;509500;29;1450;-75
2023/03/31 15:38:17;;;;;;;5.68;1.55;;;;;;;;;;509319;29;943;-75
2023/03/31 15:38:32;;;;;;;5.43;1.50;;;;;;;;;;510660;29;1276;-75
2023/03/31 15:38:56;;;;;;;5.17;1.40;;;;;;;;;;511578;29;820;-75
2023/03/31 15:39:13;;;;;;;5.65;1.80;;;;;;;;;;513256;28;1257;-75
2023/03/31 15:39:31;;;;;;;7.05;2.10;;;;;;;;;;515490;28;1014;-76
2023/03/31 15:39:47;;;;;;;8.15;1.92;;;;;;;;;;514827;28;1302;-74
2023/03/31 15:40:07;;;;;;;7.43;1.80;;;;;;;;;;514943;28;1084;-74
2023/03/31 15:40:24;;;;;;;6.00;1.88;;;;;;;;;;514395;28;1296;-74
2023/03/31 15:40:41;;;;;;;6.72;1.77;;;;;;;;;;516047;28;1064;-75
2023/03/31 15:40:57;;;;;;;6.60;1.60;;;;;;;;;;515756;28;1153;-74
2023/03/31 15:41:16;;;;;;;5.72;1.70;;;;;;;;;;516841;28;1793;-75
2023/03/31 15:41:31;;;;;;;5.03;1.70;;;;;;;;;;517163;28;1441;-75
2023/03/31 15:41:47;;;;;;;5.67;1.57;;;;;;;;;;515290;28;1254;-74
2023/03/31 15:42:03;;;;;;;5.97;1.58;;;;;;;;;;514507;28;1135;-76
2023/03/31 15:42:18;;;;;;;6.43;1.77;;;;;;;;;;516537;28;1260;-74
2023/03/31 15:42:39;;;;;;;6.70;1.70;;;;;;;;;;517079;28;1231;-74
2023/03/31 15:43:09;;;;;;;6.25;1.35;;;;;;;;;;517260;28;1000;-74
2023/03/31 15:43:42;;;;;;;5.28;1.60;;;;;;;;;;514579;28;1312;-74
2023/03/31 15:44:30;;;;;;;5.03;1.40;;;;;;;;;;514465;28;1072;-74
2023/03/31 15:45:09;;;;;;;7.18;1.67;;;;;;;;;;502947;28;1592;-74
2023/03/31 15:45:56;;;;;;;6.40;1.70;;;;;;;;;;491676;29;1145;-73
2023/03/31 15:46:33;;;;;;;6.30;1.80;;;;;;;;;;489943;29;1436;-73
2023/03/31 15:47:25;;;;;;;5.50;1.67;;;;;;;;;;488902;29;1338;-74
2023/03/31 15:48:13;;;;;;;7.40;2.50;;;;;;;;;;488451;29;1227;-74
2023/03/31 15:48:36;;;;;;;7.90;2.65;;;;;;;;;;486406;29;1561;-73
2023/03/31 15:49:02;;;;;;;6.88;2.60;;;;;;;;;;491275;29;1506;-74
2023/03/31 15:49:22;;;;;;;6.43;2.90;;;;;;;;;;492203;29;1827;-78
2023/03/31 15:49:55;;;;;;;7.18;2.67;;;;;;;;;;493436;29;1044;-75
2023/03/31 15:50:25;;;;;;;7.28;2.70;;;;;;;;;;490016;29;1421;-73
2023/03/31 15:50:41;;;;;;;7.70;2.92;;;;;;;;;;490955;29;1442;-73
2023/03/31 15:51:12;;;;;;;8.43;2.97;;;;;;;;;;492022;29;1352;-74
2023/03/31 15:51:45;;;;;;;7.60;3.10;;;;;;;;;;493070;29;1633;-76
2023/03/31 15:52:29;;;;;;;8.02;3.30;;;;;;;;;;491012;29;1530;-73
2023/03/31 15:52:52;;;;;;;6.47;2.70;;;;;;;;;;493166;29;1467;-77
2023/03/31 15:53:27;;;;;;;6.70;2.50;;;;;;;;;;489106;29;1436;-74
2023/03/31 15:53:57;;;;;;;5.65;2.00;;;;;;;;;;489443;29;1458;-76
2023/03/31 15:54:41;;;;;;;6.88;2.30;;;;;;;;;;489701;29;1366;-74
2023/03/31 15:55:03;;;;;;;6.72;2.25;;;;;;;;;;488588;29;1098;-73
2023/03/31 15:55:39;;;;;;;6.53;1.98;;;;;;;;;;486430;29;1316;-74
2023/03/31 15:56:04;;;;;;;5.97;1.73;;;;;;;;;;490042;29;1406;-74
2023/03/31 15:56:38;;;;;;;6.35;2.08;;;;;;;;;;489311;29;1534;-73
2023/03/31 15:56:58;;;;;;;6.50;1.92;;;;;;;;;;488766;29;939;-73
2023/03/31 15:57:18;;;;;;;7.28;2.17;;;;;;;;;;489364;29;976;-72
2023/03/31 15:57:52;;;;;;;5.85;1.70;;;;;;;;;;488126;29;1586;-72
2023/03/31 15:58:15;;;;;;;4.60;1.35;;;;;;;;;;489636;29;1457;-72
2023/03/31 15:58:54;;;;;;;6.10;1.77;;;;;;;;;;490429;29;1415;-73
2023/03/31 15:59:22;;;;;;;6.07;2.17;;;;;;;;;;492032;29;1332;-72
2023/03/31 15:59:47;;;;;;;5.63;2.17;;;;;;;;;;487287;29;1367;-72
2023/03/31 16:00:06;;;;;;;12.82;7.68;;;;;;;;;;490698;29;1480;-72
2023/03/31 16:00:30;;;;;;;15.23;10.32;;;;;;;;;;491716;29;1396;-72
2023/03/31 16:00:53;;;;;;;8.75;4.13;;;;;;;;;;501774;29;1069;-73
2023/03/31 16:01:14;;;;;;;8.30;3.88;;;;;;;;;;503945;29;1188;-79
2023/03/31 16:01:31;;;;;;;14.23;8.60;;;;;;;;;;504395;29;1409;-74
2023/03/31 16:01:48;;;;;;;28.30;21.40;;;;;;;;;;507326;29;1563;-74
2023/03/31 16:02:04;;;;;;;27.85;20.98;;;;;;;;;;505539;29;1123;-74
2023/03/31 16:02:24;;;;;;;18.70;12.55;;;;;;;;;;504647;29;1266;-73
2023/03/31 16:02:42;;;;;;;7.82;3.72;;;;;;;;;;504244;29;1250;-73
2023/03/31 16:02:58;;;;;;;9.88;5.38;;;;;;;;;;502310;29;1061;-73
2023/03/31 16:03:34;;;;;;;11.02;6.15;;;;;;;;;;503035;29;1394;-74
2023/03/31 16:03:52;;;;;;;13.63;9.85;;;;;;;;;;498241;29;1116;-73
2023/03/31 16:04:10;;;;;;;11.68;5.97;;;;;;;;;;502166;29;1441;-74
2023/03/31 16:04:29;;;;;;;10.07;5.72;;;;;;;;;;503297;29;1165;-73
2023/03/31 16:04:49;;;;;;;10.48;7.38;;;;;;;;;;502332;29;1319;-74
2023/03/31 16:05:05;;;;;;;9.45;5.75;;;;;;;;;;502902;29;1397;-73
2023/03/31 16:05:24;;;;;;;9.30;4.77;;;;;;;;;;502209;29;1198;-73
2023/03/31 16:05:41;;;;;;;7.57;4.00;;;;;;;;;;501974;29;1037;-73
2023/03/31 16:05:57;;;;;;;7.40;3.63;;;;;;;;;;502380;29;1431;-73
2023/03/31 16:06:32;;;;;;;8.03;3.63;;;;;;;;;;498949;29;1255;-73
2023/03/31 16:06:55;;;;;;;8.32;3.95;;;;;;;;;;501686;29;1143;-73
2023/03/31 16:07:19;;;;;;;7.57;4.00;;;;;;;;;;503515;29;1143;-73
2023/03/31 16:07:35;;;;;;;8.57;4.45;;;;;;;;;;502987;29;1067;-72
2023/03/31 16:07:50;;;;;;;8.10;3.92;;;;;;;;;;504196;29;1243;-73
2023/03/31 16:08:11;;;;;;;7.10;3.30;;;;;;;;;;501578;29;1389;-73
2023/03/31 16:08:36;;;;;;;6.85;2.92;;;;;;;;;;501748;29;1353;-73
2023/03/31 16:09:05;;;;;;;6.75;2.38;;;;;;;;;;502378;29;1015;-72
2023/03/31 16:09:22;;;;;;;6.40;3.08;;;;;;;;;;500392;29;1551;-73
2023/03/31 16:09:50;;;;;;;6.68;3.22;;;;;;;;;;500254;29;1431;-73
2023/03/31 16:10:23;;;;;;;4.82;2.35;;;;;;;;;;501279;29;1143;-73
2023/03/31 16:10:39;;;;;;;5.78;2.35;;;;;;;;;;498716;29;941;-73
2023/03/31 16:11:06;;;;;;;5.28;2.28;;;;;;;;;;499509;29;1166;-72
2023/03/31 16:11:33;;;;;;;5.20;1.92;;;;;;;;;;500843;29;1162;-73
2023/03/31 16:11:52;;;;;;;5.10;1.40;;;;;;;;;;502764;29;1443;-73
2023/03/31 16:12:12;;;;;;;4.43;1.27;;;;;;;;;;504115;29;1423;-74
2023/03/31 16:12:30;;;;;;;5.45;1.20;;;;;;;;;;504432;29;1325;-73
2023/03/31 16:12:48;;;;;;;4.55;1.20;;;;;;;;;;501776;29;1400;-73
2023/03/31 16:13:05;;;;;;;4.53;1.42;;;;;;;;;;501657;29;1117;-74
2023/03/31 16:13:24;;;;;;;4.22;1.50;;;;;;;;;;499255;29;1267;-73
2023/03/31 16:13:42;;;;;;;6.15;1.52;;;;;;;;;;500758;29;1106;-73
2023/03/31 16:13:58;;;;;;;8.00;2.17;;;;;;;;;;499718;29;1303;-74
2023/03/31 16:14:35;;;;;;;10.95;7.28;;;;;;;;;;499107;29;1534;-73
2023/03/31 16:14:55;;;;;;;8.93;5.88;;;;;;;;;;501421;29;1115;-73
2023/03/31 16:15:15;;;;;;;7.20;3.78;;;;;;;;;;502677;29;1312;-74
2023/03/31 16:15:30;;;;;;;6.90;3.67;;;;;;;;;;503290;29;1074;-74
2023/03/31 16:15:47;;;;;;;8.70;4.03;;;;;;;;;;504123;29;1976;-74
2023/03/31 16:16:06;;;;;;;11.18;6.68;;;;;;;;;;500713;29;1161;-73
2023/03/31 16:16:22;;;;;;;12.50;9.00;;;;;;;;;;501360;29;1231;-74
2023/03/31 16:16:38;;;;;;;10.88;6.70;;;;;;;;;;503997;29;1470;-74
2023/03/31 16:16:56;;;;;;;8.27;3.97;;;;;;;;;;501628;29;1362;-73
2023/03/31 16:17:18;;;;;;;9.98;6.05;;;;;;;;;;501967;29;1152;-73
2023/03/31 16:17:45;;;;;;;9.90;6.57;;;;;;;;;;500456;29;1413;-73
2023/03/31 16:18:08;;;;;;;10.13;7.20;;;;;;;;;;499602;29;1234;-74
2023/03/31 16:18:36;;;;;;;8.93;5.90;;;;;;;;;;498441;29;1063;-73
2023/03/31 16:18:54;;;;;;;6.30;2.50;;;;;;;;;;501752;29;1279;-74
2023/03/31 16:19:13;;;;;;;6.55;2.13;;;;;;;;;;499641;29;1341;-74
2023/03/31 16:19:30;;;;;;;7.68;3.67;;;;;;;;;;501064;29;1106;-73
2023/03/31 16:19:48;;;;;;;7.57;3.83;;;;;;;;;;501558;29;1341;-73
2023/03/31 16:20:06;;;;;;;7.55;3.17;;;;;;;;;;502362;29;1146;-73
2023/03/31 16:20:23;;;;;;;7.22;3.22;;;;;;;;;;500741;29;1131;-74
2023/03/31 16:20:42;;;;;;;7.07;3.20;;;;;;;;;;501938;29;1326;-74
2023/03/31 16:20:59;;;;;;;7.00;2.35;;;;;;;;;;500699;29;1115;-73
2023/03/31 16:21:19;;;;;;;5.60;1.55;;;;;;;;;;503100;29;1746;-75
2023/03/31 16:21:37;;;;;;;4.80;1.30;;;;;;;;;;501395;29;1282;-73
2023/03/31 16:21:53;;;;;;;5.68;1.42;;;;;;;;;;501721;29;1467;-73
2023/03/31 16:22:12;;;;;;;5.72;1.60;;;;;;;;;;502027;29;1196;-73
2023/03/31 16:22:34;;;;;;;6.40;2.88;;;;;;;;;;501876;29;1278;-73
2023/03/31 16:22:51;;;;;;;5.72;2.80;;;;;;;;;;503071;29;1523;-73
2023/03/31 16:23:11;;;;;;;5.07;1.65;;;;;;;;;;501252;29;1484;-73
2023/03/31 16:23:29;;;;;;;5.30;1.55;;;;;;;;;;498590;29;1078;-74
2023/03/31 16:23:49;;;;;;;5.45;1.50;;;;;;;;;;501465;29;1587;-73
2023/03/31 16:24:05;;;;;;;5.65;2.00;;;;;;;;;;513410;28;1622;-74
2023/03/31 16:24:26;;;;;;;6.07;2.70;;;;;;;;;;512420;28;1119;-73
2023/03/31 16:24:44;;;;;;;5.90;2.10;;;;;;;;;;516119;28;1122;-74
2023/03/31 16:25:00;;;;;;;5.07;1.70;;;;;;;;;;513169;28;1265;-73
2023/03/31 16:25:17;;;;;;;4.68;1.48;;;;;;;;;;513666;28;1241;-74
2023/03/31 16:25:37;;;;;;;5.50;1.38;;;;;;;;;;512526;28;1272;-74
2023/03/31 16:25:53;;;;;;;6.03;1.40;;;;;;;;;;514031;28;1385;-74
2023/03/31 16:26:08;;;;;;;5.20;1.30;;;;;;;;;;514020;28;1194;-74
2023/03/31 16:26:26;;;;;;;5.53;1.40;;;;;;;;;;513985;28;1311;-74
2023/03/31 16:26:42;;;;;;;4.93;1.35;;;;;;;;;;511196;28;1020;-73
2023/03/31 16:27:05;;;;;;;4.93;1.30;;;;;;;;;;513090;28;1162;-73
2023/03/31 16:27:21;;;;;;;6.82;1.50;;;;;;;;;;512741;28;1210;-73
2023/03/31 16:27:42;;;;;;;6.47;1.57;;;;;;;;;;512553;28;1226;-73
2023/03/31 16:27:58;;;;;;;5.80;1.50;;;;;;;;;;516449;28;1400;-73
2023/03/31 16:28:15;;;;;;;4.45;1.48;;;;;;;;;;511644;28;1288;-74
2023/03/31 16:28:32;;;;;;;5.38;1.95;;;;;;;;;;514593;28;1168;-75
2023/03/31 16:28:49;;;;;;;5.97;2.40;;;;;;;;;;512631;28;1265;-74
2023/03/31 16:29:04;;;;;;;5.70;2.63;;;;;;;;;;515468;28;1273;-73
2023/03/31 16:29:20;;;;;;;5.60;2.67;;;;;;;;;;515116;28;1108;-73
2023/03/31 16:29:36;;;;;;;5.32;2.47;;;;;;;;;;516291;28;1296;-74
2023/03/31 16:30:04;;;;;;;6.93;2.90;;;;;;;;;;514902;28;1143;-74
2023/03/31 16:30:21;;;;;;;9.57;5.47;;;;;;;;;;513756;28;1019;-75
2023/03/31 16:30:40;;;;;;;11.35;8.40;;;;;;;;;;513956;28;1156;-74
2023/03/31 16:30:57;;;;;;;6.53;3.33;;;;;;;;;;515553;28;1403;-73
2023/03/31 16:31:41;;;;;;;6.13;2.13;;;;;;;;;;511438;28;1320;-74
2023/03/31 16:32:08;;;;;;;9.88;6.25;;;;;;;;;;511215;28;1400;-73
2023/03/31 16:32:23;;;;;;;10.00;7.10;;;;;;;;;;511088;28;1101;-74
2023/03/31 16:32:38;;;;;;;10.30;7.57;;;;;;;;;;513694;28;1229;-75
2023/03/31 16:33:02;;;;;;;8.77;4.60;;;;;;;;;;515746;28;1199;-73
2023/03/31 16:33:19;;;;;;;11.02;6.43;;;;;;;;;;515868;28;1150;-74
2023/03/31 16:33:54;;;;;;;7.28;2.28;;;;;;;;;;515929;28;1163;-74
2023/03/31 16:34:10;;;;;;;4.85;1.50;;;;;;;;;;517120;28;1210;-73
2023/03/31 16:34:30;;;;;;;4.72;1.33;;;;;;;;;;514867;28;1357;-73
2023/03/31 16:34:58;;;;;;;15.07;10.40;;;;;;;;;;513208;28;1421;-74
2023/03/31 16:35:14;;;;;;;10.02;6.00;;;;;;;;;;511735;28;1355;-73
2023/03/31 16:35:31;;;;;;;5.93;2.60;;;;;;;;;;511444;28;1281;-74
2023/03/31 16:35:51;;;;;;;6.38;1.50;;;;;;;;;;512802;28;1987;-74
2023/03/31 16:36:11;;;;;;;7.30;2.67;;;;;;;;;;512845;28;1096;-73
2023/03/31 16:36:27;;;;;;;7.03;3.08;;;;;;;;;;513025;28;1356;-74
2023/03/31 16:36:44;;;;;;;6.10;1.57;;;;;;;;;;515636;28;1128;-74
2023/03/31 16:37:07;;;;;;;7.10;2.17;;;;;;;;;;512822;28;1399;-74
2023/03/31 16:37:22;;;;;;;12.57;7.97;;;;;;;;;;515277;28;1444;-75
2023/03/31 16:37:37;;;;;;;9.65;5.82;;;;;;;;;;513168;28;1391;-74
2023/03/31 16:37:53;;;;;;;5.70;2.13;;;;;;;;;;513437;28;1183;-74
2023/03/31 16:38:09;;;;;;;8.38;3.88;;;;;;;;;;513461;28;1006;-74
2023/03/31 16:38:26;;;;;;;11.65;7.07;;;;;;;;;;515019;28;963;-73
2023/03/31 16:38:41;;;;;;;13.30;10.15;;;;;;;;;;515423;28;962;-74
2023/03/31 16:38:57;;;;;;;15.65;12.40;;;;;;;;;;516796;28;1319;-74
2023/03/31 16:39:13;;;;;;;11.40;7.53;;;;;;;;;;517561;28;918;-73
2023/03/31 16:39:28;;;;;;;7.17;2.97;;;;;;;;;;518027;28;883;-74
2023/03/31 16:39:43;;;;;;;7.47;2.47;;;;;;;;;;519437;28;1036;-73
2023/03/31 16:39:58;;;;;;;8.27;2.77;;;;;;;;;;519216;28;1010;-74
2023/03/31 16:40:21;;;;;;;8.87;3.67;;;;;;;;;;519641;28;873;-74
2023/03/31 16:40:37;;;;;;;8.52;3.22;;;;;;;;;;517282;28;1316;-73
2023/03/31 16:40:54;;;;;;;7.28;2.10;;;;;;;;;;517490;28;1330;-75
2023/03/31 16:41:09;;;;;;;4.28;1.40;;;;;;;;;;517470;28;1284;-73
2023/03/31 16:41:27;;;;;;;4.95;1.30;;;;;;;;;;516277;28;1134;-74
2023/03/31 16:41:42;;;;;;;4.90;1.30;;;;;;;;;;513020;28;1283;-74
2023/03/31 16:41:57;;;;;;;5.67;1.50;;;;;;;;;;514387;28;1166;-73
2023/03/31 16:42:12;;;;;;;6.97;1.47;;;;;;;;;;515517;28;1102;-74
2023/03/31 16:42:27;;;;;;;6.13;1.30;;;;;;;;;;512775;28;1345;-73
2023/03/31 16:42:43;;;;;;;4.93;1.40;;;;;;;;;;513946;28;1120;-74
2023/03/31 16:43:13;;;;;;;5.77;1.47;;;;;;;;;;515929;28;1153;-73
2023/03/31 16:43:29;;;;;;;5.20;1.35;;;;;;;;;;515850;28;1052;-74
2023/03/31 16:43:45;;;;;;;4.53;1.30;;;;;;;;;;516366;28;1095;-74
2023/03/31 16:44:00;;;;;;;4.78;1.52;;;;;;;;;;515722;28;1001;-74
2023/03/31 16:44:15;;;;;;;5.80;1.60;;;;;;;;;;515179;28;1004;-74
2023/03/31 16:44:31;;;;;;;5.77;1.50;;;;;;;;;;518541;28;1177;-74
2023/03/31 16:44:46;;;;;;;5.20;1.38;;;;;;;;;;515915;28;1217;-74
2023/03/31 16:45:02;;;;;;;5.10;1.30;;;;;;;;;;513864;28;1514;-74
2023/03/31 16:45:18;;;;;;;5.53;1.48;;;;;;;;;;514704;28;1102;-74
2023/03/31 16:45:33;;;;;;;5.30;1.40;;;;;;;;;;513433;28;1123;-73
2023/03/31 16:45:53;;;;;;;5.63;1.50;;;;;;;;;;515940;28;1127;-73
2023/03/31 16:46:08;;;;;;;5.40;1.80;;;;;;;;;;515630;28;1194;-73
2023/03/31 16:46:23;;;;;;;5.00;1.70;;;;;;;;;;515615;28;1281;-74
2023/03/31 16:46:38;;;;;;;5.30;1.60;;;;;;;;;;511602;28;1262;-75
2023/03/31 16:46:56;;;;;;;5.23;1.40;;;;;;;;;;513016;28;1339;-74
2023/03/31 16:47:12;;;;;;;4.72;1.50;;;;;;;;;;512997;28;1344;-74
2023/03/31 16:47:27;;;;;;;5.38;1.50;;;;;;;;;;512358;28;1171;-74
2023/03/31 16:47:42;;;;;;;5.70;2.03;;;;;;;;;;512818;28;1177;-74
2023/03/31 16:47:58;;;;;;;7.43;3.53;;;;;;;;;;513892;28;1222;-73
2023/03/31 16:48:13;;;;;;;8.43;5.03;;;;;;;;;;513635;28;1327;-74
2023/03/31 16:48:32;;;;;;;9.40;5.80;;;;;;;;;;513671;28;988;-73
2023/03/31 16:48:47;;;;;;;10.05;6.35;;;;;;;;;;509869;28;1403;-73
2023/03/31 16:49:02;;;;;;;9.23;5.77;;;;;;;;;;512492;28;1467;-74
2023/03/31 16:49:18;;;;;;;9.73;5.50;;;;;;;;;;515192;28;1182;-74
2023/03/31 16:49:33;;;;;;;9.75;5.25;;;;;;;;;;514127;28;1135;-74
2023/03/31 16:49:49;;;;;;;8.00;4.07;;;;;;;;;;516392;28;1171;-75
2023/03/31 16:50:07;;;;;;;6.18;2.65;;;;;;;;;;511871;28;1340;-75
2023/03/31 16:50:22;;;;;;;6.68;2.80;;;;;;;;;;513987;28;1299;-74
2023/03/31 16:50:39;;;;;;;6.90;3.27;;;;;;;;;;513167;28;1460;-74
2023/03/31 16:50:56;;;;;;;7.43;4.32;;;;;;;;;;512974;28;1240;-75
2023/03/31 16:51:11;;;;;;;7.32;3.72;;;;;;;;;;514347;28;1183;-76
2023/03/31 16:51:26;;;;;;;6.63;2.17;;;;;;;;;;514298;28;1135;-75
2023/03/31 16:51:41;;;;;;;7.43;1.80;;;;;;;;;;514414;28;1289;-75
2023/03/31 16:51:57;;;;;;;7.60;2.05;;;;;;;;;;513262;28;1283;-73
2023/03/31 16:52:12;;;;;;;7.97;2.70;;;;;;;;;;515841;28;1304;-73
2023/03/31 16:52:28;;;;;;;7.13;2.30;;;;;;;;;;515849;28;1092;-74
2023/03/31 16:52:44;;;;;;;4.88;1.30;;;;;;;;;;517891;28;1166;-74
2023/03/31 16:53:00;;;;;;;5.35;1.35;;;;;;;;;;517213;28;1115;-74
2023/03/31 16:53:17;;;;;;;6.65;1.55;;;;;;;;;;514850;28;1284;-75
2023/03/31 16:53:34;;;;;;;7.05;1.50;;;;;;;;;;515266;28;1139;-75
2023/03/31 16:53:49;;;;;;;5.32;1.40;;;;;;;;;;514830;28;1151;-75
2023/03/31 16:54:05;;;;;;;4.32;1.23;;;;;;;;;;515416;28;1151;-76
2023/03/31 16:54:20;;;;;;;3.33;1.00;;;;;;;;;;514138;28;1204;-75
2023/03/31 16:54:35;;;;;;;3.90;1.10;;;;;;;;;;515196;28;1296;-75
2023/03/31 16:54:50;;;;;;;4.77;1.37;;;;;;;;;;516308;28;1039;-74
2023/03/31 16:55:06;;;;;;;6.43;2.45;;;;;;;;;;516283;28;1194;-74
2023/03/31 16:55:21;;;;;;;9.57;5.60;;;;;;;;;;513498;28;1185;-75
2023/03/31 16:55:36;;;;;;;10.33;6.73;;;;;;;;;;514300;28;1183;-73
2023/03/31 16:55:52;;;;;;;8.80;5.23;;;;;;;;;;514046;28;1916;-74
2023/03/31 16:56:07;;;;;;;7.45;4.10;;;;;;;;;;514642;28;1139;-74
2023/03/31 16:56:22;;;;;;;6.87;3.13;;;;;;;;;;515208;28;1210;-74
2023/03/31 16:56:38;;;;;;;7.53;3.72;;;;;;;;;;519201;28;1060;-74
2023/03/31 16:56:53;;;;;;;8.10;4.30;;;;;;;;;;516247;28;1205;-75
2023/03/31 16:57:08;;;;;;;8.10;4.03;;;;;;;;;;516264;28;1201;-74
2023/03/31 16:57:24;;;;;;;8.45;4.32;;;;;;;;;;516769;28;1135;-74
2023/03/31 16:57:39;;;;;;;8.03;4.20;;;;;;;;;;517751;28;1187;-74
2023/03/31 16:57:54;;;;;;;7.97;3.90;;;;;;;;;;514778;28;1306;-73
2023/03/31 16:58:10;;;;;;;7.32;3.15;;;;;;;;;;516518;28;1247;-73
2023/03/31 16:58:27;;;;;;;6.93;3.10;;;;;;;;;;515562;28;1316;-74
2023/03/31 16:58:43;;;;;;;8.10;3.30;;;;;;;;;;516910;28;1123;-74
2023/03/31 16:58:59;;;;;;;7.63;3.30;;;;;;;;;;515028;28;1127;-74
2023/03/31 16:59:14;;;;;;;7.67;3.77;;;;;;;;;;515438;28;1534;-73
2023/03/31 16:59:29;;;;;;;7.27;2.80;;;;;;;;;;514869;28;1375;-73
2023/03/31 16:59:45;;;;;;;6.20;1.80;;;;;;;;;;515016;28;1111;-73
2023/03/31 17:00:00;;;;;;;5.93;2.17;;;;;;;;;;514278;28;1025;-73
2023/03/31 17:00:44;;;;;;;5.37;1.73;;;;;;;;;;514315;28;1125;-73
2023/03/31 17:00:59;;;;;;;6.55;2.20;;;;;;;;;;513919;28;1177;-73
2023/03/31 17:01:14;;;;;;;5.63;1.98;;;;;;;;;;512259;28;1484;-73
2023/03/31 17:01:30;;;;;;;5.43;1.87;;;;;;;;;;511339;28;1577;-73
2023/03/31 17:01:45;;;;;;;6.07;2.00;;;;;;;;;;512017;28;1229;-73
2023/03/31 17:02:00;;;;;;;5.87;1.70;;;;;;;;;;511484;28;1078;-73
2023/03/31 17:02:15;;;;;;;5.18;1.45;;;;;;;;;;514677;28;1073;-75
2023/03/31 17:02:31;;;;;;;4.90;1.40;;;;;;;;;;512761;28;1292;-74
2023/03/31 17:02:46;;;;;;;4.63;1.30;;;;;;;;;;512884;28;1183;-74
2023/03/31 17:03:02;;;;;;;4.20;1.20;;;;;;;;;;512771;28;1128;-74
2023/03/31 17:03:17;;;;;;;3.92;1.10;;;;;;;;;;512074;28;1310;-74
2023/03/31 17:03:33;;;;;;;3.97;1.37;;;;;;;;;;514575;28;1213;-74
2023/03/31 17:03:48;;;;;;;4.50;1.50;;;;;;;;;;514808;28;1263;-74
2023/03/31 17:04:03;;;;;;;5.23;1.40;;;;;;;;;;514737;28;1292;-74
2023/03/31 17:04:19;;;;;;;5.68;1.25;;;;;;;;;;513148;28;1215;-75
2023/03/31 17:04:34;;;;;;;4.13;1.08;;;;;;;;;;513921;28;1365;-73
2023/03/31 17:04:50;;;;;;;3.27;1.10;;;;;;;;;;512627;28;1177;-73
2023/03/31 17:05:05;;;;;;;4.37;1.30;;;;;;;;;;512127;28;1478;-75
2023/03/31 17:05:21;;;;;;;4.80;1.27;;;;;;;;;;511402;28;1250;-73
2023/03/31 17:05:42;;;;;;;5.23;1.33;;;;;;;;;;510590;28;1314;-73
2023/03/31 17:05:57;;;;;;;5.07;1.67;;;;;;;;;;509655;28;1204;-73
2023/03/31 17:06:22;;;;;;;4.67;1.67;;;;;;;;;;513739;28;1328;-73
2023/03/31 17:06:37;;;;;;;4.80;1.67;;;;;;;;;;514782;28;1345;-73
2023/03/31 17:06:52;;;;;;;6.00;2.60;;;;;;;;;;513196;28;1240;-74
2023/03/31 17:07:07;;;;;;;5.90;2.53;;;;;;;;;;514178;28;1135;-74
2023/03/31 17:07:23;;;;;;;4.97;1.83;;;;;;;;;;513407;28;1271;-73
2023/03/31 17:07:38;;;;;;;4.63;1.40;;;;;;;;;;515762;28;1111;-74
2023/03/31 17:07:53;;;;;;;4.07;1.23;;;;;;;;;;515946;28;1135;-73
2023/03/31 17:08:09;;;;;;;3.90;1.47;;;;;;;;;;516680;28;1164;-74
2023/03/31 17:08:26;;;;;;;4.03;1.60;;;;;;;;;;516422;28;1179;-73
2023/03/31 17:08:41;;;;;;;4.10;1.25;;;;;;;;;;517940;28;999;-74
2023/03/31 17:08:56;;;;;;;4.50;1.10;;;;;;;;;;516277;28;1330;-74
2023/03/31 17:09:12;;;;;;;4.60;1.10;;;;;;;;;;515388;28;1210;-74
2023/03/31 17:09:27;;;;;;;4.73;1.10;;;;;;;;;;513799;28;1238;-73
2023/03/31 17:09:42;;;;;;;5.43;1.20;;;;;;;;;;516238;28;1124;-73
2023/03/31 17:09:57;;;;;;;4.93;1.27;;;;;;;;;;513580;28;1270;-73
2023/03/31 17:10:13;;;;;;;4.60;1.43;;;;;;;;;;516184;28;1182;-74
2023/03/31 17:10:28;;;;;;;5.53;2.03;;;;;;;;;;514623;28;1213;-74
2023/03/31 17:10:50;;;;;;;5.32;2.22;;;;;;;;;;514710;28;1286;-74
2023/03/31 17:11:05;;;;;;;4.25;1.52;;;;;;;;;;512981;28;1319;-74
2023/03/31 17:11:21;;;;;;;4.45;1.30;;;;;;;;;;514109;28;1199;-73
2023/03/31 17:11:36;;;;;;;4.22;1.30;;;;;;;;;;514735;28;998;-73
2023/03/31 17:11:52;;;;;;;3.90;1.20;;;;;;;;;;511853;28;1185;-74
2023/03/31 17:12:07;;;;;;;4.30;1.10;;;;;;;;;;514528;28;1226;-73
2023/03/31 17:12:22;;;;;;;4.63;1.25;;;;;;;;;;512285;28;1365;-74
2023/03/31 17:12:37;;;;;;;4.97;1.67;;;;;;;;;;510486;28;1295;-73
2023/03/31 17:12:53;;;;;;;4.40;1.73;;;;;;;;;;512002;28;1344;-74
2023/03/31 17:13:08;;;;;;;3.97;1.60;;;;;;;;;;512554;28;1203;-74
2023/03/31 17:13:23;;;;;;;4.65;1.90;;;;;;;;;;511492;28;1241;-74
2023/03/31 17:13:39;;;;;;;5.13;2.30;;;;;;;;;;510593;28;1131;-74
2023/03/31 17:13:55;;;;;;;4.43;2.08;;;;;;;;;;510591;28;1547;-73
2023/03/31 17:14:10;;;;;;;4.30;1.80;;;;;;;;;;510731;29;1171;-74
2023/03/31 17:14:26;;;;;;;4.67;1.60;;;;;;;;;;510921;28;1332;-74
2023/03/31 17:14:41;;;;;;;4.95;1.70;;;;;;;;;;511960;28;1390;-74
2023/03/31 17:14:56;;;;;;;6.00;2.40;;;;;;;;;;510740;28;1493;-75